sensor_id;sensor_type;location;lat;lon;timestamp;temperature;humidity
12817;DHT22;6473;51.552;6.716;2022-10-04T00:00:45;11.50;1.00
12817;DHT22;6473;51.552;6.716;2022-10-04T00:03:23;11.40;1.00
12817;DHT22;6473;51.552;6.716;2022-10-04T00:05:54;11.40;1.00
12817;DHT22;6473;51.552;6.716;2022-10-04T00:08:25;11.50;1.00
12817;DHT22;6473;51.552;6.716;2022-10-04T00:11:06;11.50;1.00
12817;DHT22;6473;51.552;6.716;2022-10-04T00:13:34;11.30;99.90
12817;DHT22;6473;51.552;6.716;2022-10-04T00:16:05;11.30;99.90
12817;DHT22;6473;51.552;6.716;2022-10-04T00:18:38;11.10;99.90
12817;DHT22;6473;51.552;6.716;2022-10-04T00:21:07;11.20;99.90
12817;DHT22;6473;51.552;6.716;2022-10-04T00:23:43;11.10;1.00
12817;DHT22;6473;51.552;6.716;2022-10-04T00:28:56;11.10;99.90
12817;DHT22;6473;51.552;6.716;2022-10-04T00:31:25;11.10;99.90
12817;DHT22;6473;51.552;6.716;2022-10-04T00:33:56;11.10;1.00
12817;DHT22;6473;51.552;6.716;2022-10-04T00:36:49;11.10;1.00
12817;DHT22;6473;51.552;6.716;2022-10-04T00:39:41;11.20;99.90
12817;DHT22;6473;51.552;6.716;2022-10-04T00:45:33;11.30;1.00
12817;DHT22;6473;51.552;6.716;2022-10-04T00:48:10;11.20;99.90
12817;DHT22;6473;51.552;6.716;2022-10-04T00:50:43;11.30;99.90
12817;DHT22;6473;51.552;6.716;2022-10-04T00:53:17;11.30;99.90
12817;DHT22;6473;51.552;6.716;2022-10-04T00:55:50;11.30;99.90
12817;DHT22;6473;51.552;6.716;2022-10-04T00:58:21;11.20;99.90
12817;DHT22;6473;51.552;6.716;2022-10-04T01:00:51;11.20;1.00
12817;DHT22;6473;51.552;6.716;2022-10-04T01:03:26;11.10;1.00
12817;DHT22;6473;51.552;6.716;2022-10-04T01:05:57;11.10;1.00
12817;DHT22;6473;51.552;6.716;2022-10-04T01:08:28;11.10;99.90
12817;DHT22;6473;51.552;6.716;2022-10-04T01:10:59;11.10;43.10
12817;DHT22;6473;51.552;6.716;2022-10-04T01:13:29;11.10;9.00
12817;DHT22;6473;51.552;6.716;2022-10-04T01:15:59;11.00;99.90
12817;DHT22;6473;51.552;6.716;2022-10-04T01:18:32;11.00;1.00
12817;DHT22;6473;51.552;6.716;2022-10-04T01:21:03;11.00;45.40
12817;DHT22;6473;51.552;6.716;2022-10-04T01:23:46;11.00;1.00
12817;DHT22;6473;51.552;6.716;2022-10-04T01:26:38;11.00;99.90
12817;DHT22;6473;51.552;6.716;2022-10-04T01:29:08;11.00;1.00
12817;DHT22;6473;51.552;6.716;2022-10-04T01:31:37;11.00;1.00
12817;DHT22;6473;51.552;6.716;2022-10-04T01:34:06;11.00;1.00
12817;DHT22;6473;51.552;6.716;2022-10-04T01:36:34;11.00;1.00
12817;DHT22;6473;51.552;6.716;2022-10-04T01:39:03;10.90;99.90
12817;DHT22;6473;51.552;6.716;2022-10-04T01:41:38;11.20;99.90
12817;DHT22;6473;51.552;6.716;2022-10-04T01:44:13;10.80;1.00
12817;DHT22;6473;51.552;6.716;2022-10-04T01:46:42;10.80;99.90
12817;DHT22;6473;51.552;6.716;2022-10-04T01:49:14;10.90;1.00
12817;DHT22;6473;51.552;6.716;2022-10-04T01:51:46;11.00;1.00
12817;DHT22;6473;51.552;6.716;2022-10-04T01:54:18;10.80;1.00
12817;DHT22;6473;51.552;6.716;2022-10-04T01:56:50;10.80;1.00
12817;DHT22;6473;51.552;6.716;2022-10-04T01:59:20;10.80;1.00
12817;DHT22;6473;51.552;6.716;2022-10-04T02:01:52;10.90;99.90
12817;DHT22;6473;51.552;6.716;2022-10-04T02:04:28;10.80;1.00
12817;DHT22;6473;51.552;6.716;2022-10-04T02:06:58;10.80;1.00
12817;DHT22;6473;51.552;6.716;2022-10-04T02:09:31;10.70;1.00
12817;DHT22;6473;51.552;6.716;2022-10-04T02:12:00;10.60;99.90
12817;DHT22;6473;51.552;6.716;2022-10-04T02:14:35;10.50;1.00
12817;DHT22;6473;51.552;6.716;2022-10-04T02:17:06;10.90;14.60
12817;DHT22;6473;51.552;6.716;2022-10-04T02:19:37;10.50;1.00
12817;DHT22;6473;51.552;6.716;2022-10-04T02:22:07;10.60;99.90
12817;DHT22;6473;51.552;6.716;2022-10-04T02:24:41;10.60;99.90
12817;DHT22;6473;51.552;6.716;2022-10-04T02:27:08;10.60;99.90
12817;DHT22;6473;51.552;6.716;2022-10-04T02:29:36;10.50;99.90
12817;DHT22;6473;51.552;6.716;2022-10-04T02:32:04;8.70;99.90
12817;DHT22;6473;51.552;6.716;2022-10-04T02:34:52;10.80;99.90
12817;DHT22;6473;51.552;6.716;2022-10-04T02:37:26;10.80;47.40
12817;DHT22;6473;51.552;6.716;2022-10-04T02:39:58;10.80;99.90
12817;DHT22;6473;51.552;6.716;2022-10-04T02:42:37;10.90;17.70
12817;DHT22;6473;51.552;6.716;2022-10-04T02:45:15;10.90;99.90
12817;DHT22;6473;51.552;6.716;2022-10-04T02:47:48;10.90;99.90
12817;DHT22;6473;51.552;6.716;2022-10-04T02:50:23;10.90;1.00
12817;DHT22;6473;51.552;6.716;2022-10-04T02:52:55;10.90;1.00
12817;DHT22;6473;51.552;6.716;2022-10-04T02:55:27;11.00;1.00
12817;DHT22;6473;51.552;6.716;2022-10-04T02:57:58;10.80;1.00
12817;DHT22;6473;51.552;6.716;2022-10-04T03:00:27;10.80;1.00
12817;DHT22;6473;51.552;6.716;2022-10-04T03:03:20;10.70;1.00
12817;DHT22;6473;51.552;6.716;2022-10-04T03:05:56;10.80;1.00
12817;DHT22;6473;51.552;6.716;2022-10-04T03:08:31;10.90;1.00
12817;DHT22;6473;51.552;6.716;2022-10-04T03:11:02;11.00;25.60
12817;DHT22;6473;51.552;6.716;2022-10-04T03:13:34;10.90;99.90
12817;DHT22;6473;51.552;6.716;2022-10-04T03:16:02;10.80;1.00
12817;DHT22;6473;51.552;6.716;2022-10-04T03:18:30;10.80;1.00
12817;DHT22;6473;51.552;6.716;2022-10-04T03:21:00;10.80;26.40
12817;DHT22;6473;51.552;6.716;2022-10-04T03:23:30;10.80;1.00
12817;DHT22;6473;51.552;6.716;2022-10-04T03:26:17;10.80;99.90
12817;DHT22;6473;51.552;6.716;2022-10-04T03:28:47;9.10;99.90
12817;DHT22;6473;51.552;6.716;2022-10-04T03:31:18;10.70;1.00
12817;DHT22;6473;51.552;6.716;2022-10-04T03:33:46;10.70;1.00
12817;DHT22;6473;51.552;6.716;2022-10-04T03:36:15;10.70;1.00
12817;DHT22;6473;51.552;6.716;2022-10-04T03:38:46;10.70;1.00
12817;DHT22;6473;51.552;6.716;2022-10-04T03:41:15;10.60;99.90
12817;DHT22;6473;51.552;6.716;2022-10-04T03:43:44;10.60;99.90
12817;DHT22;6473;51.552;6.716;2022-10-04T03:46:14;12.60;1.00
12817;DHT22;6473;51.552;6.716;2022-10-04T03:48:45;10.50;99.90
12817;DHT22;6473;51.552;6.716;2022-10-04T03:51:17;9.20;99.90
12817;DHT22;6473;51.552;6.716;2022-10-04T03:53:51;10.50;99.90
12817;DHT22;6473;51.552;6.716;2022-10-04T03:56:26;10.40;99.90
12817;DHT22;6473;51.552;6.716;2022-10-04T03:58:56;10.40;99.90
12817;DHT22;6473;51.552;6.716;2022-10-04T04:01:34;6.90;99.90
12817;DHT22;6473;51.552;6.716;2022-10-04T04:04:11;10.20;99.90
12817;DHT22;6473;51.552;6.716;2022-10-04T04:06:45;10.20;99.90
12817;DHT22;6473;51.552;6.716;2022-10-04T04:09:20;10.20;99.90
12817;DHT22;6473;51.552;6.716;2022-10-04T04:11:50;12.30;99.90
12817;DHT22;6473;51.552;6.716;2022-10-04T04:14:24;13.50;99.90
12817;DHT22;6473;51.552;6.716;2022-10-04T04:16:52;10.10;99.90
12817;DHT22;6473;51.552;6.716;2022-10-04T04:19:22;11.50;99.90
12817;DHT22;6473;51.552;6.716;2022-10-04T04:21:54;10.00;99.90
12817;DHT22;6473;51.552;6.716;2022-10-04T04:24:25;10.00;99.90
12817;DHT22;6473;51.552;6.716;2022-10-04T04:26:58;10.00;99.90
12817;DHT22;6473;51.552;6.716;2022-10-04T04:29:30;9.90;99.90
12817;DHT22;6473;51.552;6.716;2022-10-04T04:32:01;9.90;99.90
12817;DHT22;6473;51.552;6.716;2022-10-04T04:34:33;9.90;99.90
12817;DHT22;6473;51.552;6.716;2022-10-04T04:37:02;9.90;99.90
12817;DHT22;6473;51.552;6.716;2022-10-04T04:39:33;9.80;99.90
12817;DHT22;6473;51.552;6.716;2022-10-04T04:42:15;9.80;99.90
12817;DHT22;6473;51.552;6.716;2022-10-04T04:44:50;9.80;99.90
12817;DHT22;6473;51.552;6.716;2022-10-04T04:47:27;9.80;99.90
12817;DHT22;6473;51.552;6.716;2022-10-04T04:49:56;9.80;99.90
12817;DHT22;6473;51.552;6.716;2022-10-04T04:52:27;9.80;99.90
12817;DHT22;6473;51.552;6.716;2022-10-04T04:54:55;9.80;99.90
12817;DHT22;6473;51.552;6.716;2022-10-04T04:57:24;9.80;99.90
12817;DHT22;6473;51.552;6.716;2022-10-04T04:59:54;9.80;99.90
12817;DHT22;6473;51.552;6.716;2022-10-04T05:02:27;9.70;99.90
12817;DHT22;6473;51.552;6.716;2022-10-04T05:05:14;9.70;99.90
12817;DHT22;6473;51.552;6.716;2022-10-04T05:07:45;11.10;99.90
12817;DHT22;6473;51.552;6.716;2022-10-04T05:10:28;9.70;99.90
12817;DHT22;6473;51.552;6.716;2022-10-04T05:12:58;9.80;99.90
12817;DHT22;6473;51.552;6.716;2022-10-04T05:15:30;9.70;99.90
12817;DHT22;6473;51.552;6.716;2022-10-04T05:20:29;9.60;99.90
12817;DHT22;6473;51.552;6.716;2022-10-04T05:22:59;9.60;99.90
12817;DHT22;6473;51.552;6.716;2022-10-04T05:25:30;9.60;99.90
12817;DHT22;6473;51.552;6.716;2022-10-04T05:28:02;9.60;99.90
12817;DHT22;6473;51.552;6.716;2022-10-04T05:30:42;9.60;99.90
12817;DHT22;6473;51.552;6.716;2022-10-04T05:33:20;9.60;99.90
12817;DHT22;6473;51.552;6.716;2022-10-04T05:36:02;9.50;99.90
12817;DHT22;6473;51.552;6.716;2022-10-04T05:38:45;9.50;99.90
12817;DHT22;6473;51.552;6.716;2022-10-04T05:41:21;9.50;99.90
12817;DHT22;6473;51.552;6.716;2022-10-04T05:43:53;9.40;99.90
12817;DHT22;6473;51.552;6.716;2022-10-04T05:46:22;9.50;99.90
12817;DHT22;6473;51.552;6.716;2022-10-04T05:48:57;9.50;99.90
12817;DHT22;6473;51.552;6.716;2022-10-04T05:51:27;9.50;99.90
12817;DHT22;6473;51.552;6.716;2022-10-04T05:53:56;9.50;99.90
12817;DHT22;6473;51.552;6.716;2022-10-04T05:59:58;9.50;99.90
12817;DHT22;6473;51.552;6.716;2022-10-04T06:02:56;9.50;99.90
12817;DHT22;6473;51.552;6.716;2022-10-04T06:05:40;9.50;99.90
12817;DHT22;6473;51.552;6.716;2022-10-04T06:08:18;9.50;99.90
12817;DHT22;6473;51.552;6.716;2022-10-04T06:10:58;9.40;99.90
12817;DHT22;6473;51.552;6.716;2022-10-04T06:16:44;9.50;99.90
12817;DHT22;6473;51.552;6.716;2022-10-04T06:19:38;9.60;99.90
12817;DHT22;6473;51.552;6.716;2022-10-04T06:22:14;9.60;99.90
12817;DHT22;6473;51.552;6.716;2022-10-04T06:24:46;9.60;99.90
12817;DHT22;6473;51.552;6.716;2022-10-04T06:27:18;9.70;99.90
12817;DHT22;6473;51.552;6.716;2022-10-04T06:29:48;9.70;99.90
12817;DHT22;6473;51.552;6.716;2022-10-04T06:32:39;10.70;99.90
12817;DHT22;6473;51.552;6.716;2022-10-04T06:41:35;10.10;99.90
12817;DHT22;6473;51.552;6.716;2022-10-04T06:44:29;10.30;99.90
12817;DHT22;6473;51.552;6.716;2022-10-04T06:47:12;10.30;99.90
12817;DHT22;6473;51.552;6.716;2022-10-04T06:49:50;10.50;99.90
12817;DHT22;6473;51.552;6.716;2022-10-04T06:52:27;11.00;99.90
12817;DHT22;6473;51.552;6.716;2022-10-04T06:55:18;10.60;99.90
12817;DHT22;6473;51.552;6.716;2022-10-04T06:58:09;10.70;99.90
12817;DHT22;6473;51.552;6.716;2022-10-04T07:00:48;10.70;99.90
12817;DHT22;6473;51.552;6.716;2022-10-04T07:03:23;10.90;99.90
12817;DHT22;6473;51.552;6.716;2022-10-04T07:05:56;10.90;99.90
12817;DHT22;6473;51.552;6.716;2022-10-04T07:08:29;10.90;99.90
12817;DHT22;6473;51.552;6.716;2022-10-04T07:11:04;11.00;99.90
12817;DHT22;6473;51.552;6.716;2022-10-04T07:13:42;11.00;99.90
12817;DHT22;6473;51.552;6.716;2022-10-04T07:16:26;11.10;99.90
12817;DHT22;6473;51.552;6.716;2022-10-04T07:19:02;11.00;99.90
12817;DHT22;6473;51.552;6.716;2022-10-04T07:21:40;11.10;99.90
12817;DHT22;6473;51.552;6.716;2022-10-04T07:24:11;13.60;99.90
12817;DHT22;6473;51.552;6.716;2022-10-04T07:26:46;11.70;99.90
12817;DHT22;6473;51.552;6.716;2022-10-04T07:29:16;12.10;99.90
12817;DHT22;6473;51.552;6.716;2022-10-04T07:31:50;12.20;99.90
12817;DHT22;6473;51.552;6.716;2022-10-04T07:34:22;11.40;99.90
12817;DHT22;6473;51.552;6.716;2022-10-04T07:36:53;11.30;99.90
12817;DHT22;6473;51.552;6.716;2022-10-04T07:39:24;11.30;99.90
12817;DHT22;6473;51.552;6.716;2022-10-04T07:41:55;11.20;99.90
12817;DHT22;6473;51.552;6.716;2022-10-04T07:44:34;11.30;99.90
12817;DHT22;6473;51.552;6.716;2022-10-04T07:47:08;11.20;99.90
12817;DHT22;6473;51.552;6.716;2022-10-04T07:49:40;11.30;99.90
12817;DHT22;6473;51.552;6.716;2022-10-04T07:52:19;11.40;99.90
12817;DHT22;6473;51.552;6.716;2022-10-04T07:54:55;11.40;99.90
12817;DHT22;6473;51.552;6.716;2022-10-04T07:57:31;11.40;99.90
12817;DHT22;6473;51.552;6.716;2022-10-04T08:00:02;11.60;99.90
12817;DHT22;6473;51.552;6.716;2022-10-04T08:02:45;11.70;99.90
12817;DHT22;6473;51.552;6.716;2022-10-04T08:05:20;11.80;99.90
12817;DHT22;6473;51.552;6.716;2022-10-04T08:08:04;12.00;99.90
12817;DHT22;6473;51.552;6.716;2022-10-04T08:10:38;12.10;99.90
12817;DHT22;6473;51.552;6.716;2022-10-04T08:13:20;12.30;99.90
12817;DHT22;6473;51.552;6.716;2022-10-04T08:15:50;12.60;99.90
12817;DHT22;6473;51.552;6.716;2022-10-04T08:18:32;12.70;99.90
12817;DHT22;6473;51.552;6.716;2022-10-04T08:21:06;13.10;99.90
12817;DHT22;6473;51.552;6.716;2022-10-04T08:23:58;13.30;99.90
12817;DHT22;6473;51.552;6.716;2022-10-04T08:26:39;14.00;99.90
12817;DHT22;6473;51.552;6.716;2022-10-04T08:32:26;15.00;97.60
12817;DHT22;6473;51.552;6.716;2022-10-04T08:35:07;15.00;98.50
12817;DHT22;6473;51.552;6.716;2022-10-04T08:37:49;14.80;97.40
12817;DHT22;6473;51.552;6.716;2022-10-04T08:43:43;14.90;99.90
12817;DHT22;6473;51.552;6.716;2022-10-04T08:46:36;14.60;99.90
12817;DHT22;6473;51.552;6.716;2022-10-04T08:49:26;15.10;97.50
12817;DHT22;6473;51.552;6.716;2022-10-04T08:52:28;15.10;97.30
12817;DHT22;6473;51.552;6.716;2022-10-04T08:55:19;15.60;94.10
12817;DHT22;6473;51.552;6.716;2022-10-04T08:58:07;16.20;69.60
12817;DHT22;6473;51.552;6.716;2022-10-04T09:00:52;16.20;63.90
12817;DHT22;6473;51.552;6.716;2022-10-04T09:04:10;16.10;55.90
12817;DHT22;6473;51.552;6.716;2022-10-04T09:06:53;16.60;60.50
12817;DHT22;6473;51.552;6.716;2022-10-04T09:10:02;16.80;31.90
12817;DHT22;6473;51.552;6.716;2022-10-04T09:12:54;16.40;40.20
12817;DHT22;6473;51.552;6.716;2022-10-04T09:15:52;16.40;42.00
12817;DHT22;6473;51.552;6.716;2022-10-04T09:21:10;16.30;39.60
12817;DHT22;6473;51.552;6.716;2022-10-04T09:24:05;16.10;36.70
12817;DHT22;6473;51.552;6.716;2022-10-04T09:26:42;16.10;47.10
12817;DHT22;6473;51.552;6.716;2022-10-04T09:29:51;16.10;41.60
12817;DHT22;6473;51.552;6.716;2022-10-04T09:32:51;16.30;33.80
12817;DHT22;6473;51.552;6.716;2022-10-04T09:35:53;16.40;30.30
12817;DHT22;6473;51.552;6.716;2022-10-04T09:41:38;17.00;22.20
12817;DHT22;6473;51.552;6.716;2022-10-04T09:44:36;17.20;21.00
12817;DHT22;6473;51.552;6.716;2022-10-04T09:47:28;17.80;16.70
12817;DHT22;6473;51.552;6.716;2022-10-04T09:50:17;17.60;13.00
12817;DHT22;6473;51.552;6.716;2022-10-04T09:52:55;17.30;16.00
12817;DHT22;6473;51.552;6.716;2022-10-04T09:55:35;18.10;9.40
12817;DHT22;6473;51.552;6.716;2022-10-04T09:58:28;18.80;7.50
12817;DHT22;6473;51.552;6.716;2022-10-04T10:01:02;19.30;1.00
12817;DHT22;6473;51.552;6.716;2022-10-04T10:03:48;19.50;1.00
12817;DHT22;6473;51.552;6.716;2022-10-04T10:06:56;18.70;1.00
12817;DHT22;6473;51.552;6.716;2022-10-04T10:09:30;18.40;1.00
12817;DHT22;6473;51.552;6.716;2022-10-04T10:12:33;18.20;4.60
12817;DHT22;6473;51.552;6.716;2022-10-04T10:15:26;18.20;5.40
12817;DHT22;6473;51.552;6.716;2022-10-04T10:18:01;18.60;2.80
12817;DHT22;6473;51.552;6.716;2022-10-04T10:23:54;18.70;6.50
12817;DHT22;6473;51.552;6.716;2022-10-04T10:26:48;18.80;1.00
12817;DHT22;6473;51.552;6.716;2022-10-04T10:29:41;19.00;1.00
12817;DHT22;6473;51.552;6.716;2022-10-04T10:32:34;18.70;3.10
12817;DHT22;6473;51.552;6.716;2022-10-04T10:35:18;19.50;1.00
12817;DHT22;6473;51.552;6.716;2022-10-04T10:38:01;18.40;1.00
12817;DHT22;6473;51.552;6.716;2022-10-04T10:40:47;18.60;1.00
12817;DHT22;6473;51.552;6.716;2022-10-04T10:43:36;18.40;1.60
12817;DHT22;6473;51.552;6.716;2022-10-04T10:46:23;18.40;1.00
12817;DHT22;6473;51.552;6.716;2022-10-04T10:49:15;18.50;1.00
12817;DHT22;6473;51.552;6.716;2022-10-04T10:52:25;18.80;1.00
12817;DHT22;6473;51.552;6.716;2022-10-04T10:55:27;18.90;1.00
12817;DHT22;6473;51.552;6.716;2022-10-04T11:01:11;18.80;1.00
12817;DHT22;6473;51.552;6.716;2022-10-04T11:04:06;19.10;1.00
12817;DHT22;6473;51.552;6.716;2022-10-04T11:07:09;18.50;1.00
12817;DHT22;6473;51.552;6.716;2022-10-04T11:10:17;18.40;1.00
12817;DHT22;6473;51.552;6.716;2022-10-04T11:13:02;19.10;1.00
12817;DHT22;6473;51.552;6.716;2022-10-04T11:15:56;20.30;1.00
12817;DHT22;6473;51.552;6.716;2022-10-04T11:21:58;22.10;1.00
12817;DHT22;6473;51.552;6.716;2022-10-04T11:25:01;20.80;1.00
12817;DHT22;6473;51.552;6.716;2022-10-04T11:27:46;20.20;1.00
12817;DHT22;6473;51.552;6.716;2022-10-04T11:30:18;20.50;1.00
12817;DHT22;6473;51.552;6.716;2022-10-04T11:36:27;21.00;1.00
12817;DHT22;6473;51.552;6.716;2022-10-04T11:39:18;20.00;1.00
12817;DHT22;6473;51.552;6.716;2022-10-04T11:41:53;21.00;1.00
12817;DHT22;6473;51.552;6.716;2022-10-04T11:44:38;22.20;1.00
12817;DHT22;6473;51.552;6.716;2022-10-04T11:47:20;23.30;1.00
12817;DHT22;6473;51.552;6.716;2022-10-04T11:50:06;23.70;1.00
12817;DHT22;6473;51.552;6.716;2022-10-04T11:56:09;21.40;1.00
12817;DHT22;6473;51.552;6.716;2022-10-04T11:58:50;22.30;1.00
12817;DHT22;6473;51.552;6.716;2022-10-04T12:07:24;23.40;1.00
12817;DHT22;6473;51.552;6.716;2022-10-04T12:09:58;21.70;1.00
12817;DHT22;6473;51.552;6.716;2022-10-04T12:12:57;22.00;1.00
12817;DHT22;6473;51.552;6.716;2022-10-04T12:15:36;22.20;1.00
12817;DHT22;6473;51.552;6.716;2022-10-04T12:18:31;24.00;1.00
12817;DHT22;6473;51.552;6.716;2022-10-04T12:21:35;23.80;1.00
12817;DHT22;6473;51.552;6.716;2022-10-04T12:24:17;22.30;1.00
12817;DHT22;6473;51.552;6.716;2022-10-04T12:27:03;22.50;1.00
12817;DHT22;6473;51.552;6.716;2022-10-04T12:29:56;23.30;1.00
12817;DHT22;6473;51.552;6.716;2022-10-04T12:32:32;22.50;1.00
12817;DHT22;6473;51.552;6.716;2022-10-04T12:35:08;23.30;1.00
12817;DHT22;6473;51.552;6.716;2022-10-04T12:38:10;22.90;1.00
12817;DHT22;6473;51.552;6.716;2022-10-04T12:40:43;23.50;1.00
12817;DHT22;6473;51.552;6.716;2022-10-04T12:43:19;23.50;1.00
12817;DHT22;6473;51.552;6.716;2022-10-04T12:45:55;25.50;1.00
12817;DHT22;6473;51.552;6.716;2022-10-04T12:48:37;24.20;1.00
12817;DHT22;6473;51.552;6.716;2022-10-04T12:51:17;23.60;1.00
12817;DHT22;6473;51.552;6.716;2022-10-04T12:53:51;24.00;1.00
12817;DHT22;6473;51.552;6.716;2022-10-04T12:56:44;25.30;1.00
12817;DHT22;6473;51.552;6.716;2022-10-04T13:02:22;28.40;1.00
12817;DHT22;6473;51.552;6.716;2022-10-04T13:04:58;28.90;1.00
12817;DHT22;6473;51.552;6.716;2022-10-04T13:07:59;29.60;1.00
12817;DHT22;6473;51.552;6.716;2022-10-04T13:10:49;27.70;1.00
12817;DHT22;6473;51.552;6.716;2022-10-04T13:13:34;24.10;1.00
12817;DHT22;6473;51.552;6.716;2022-10-04T13:16:10;25.80;1.00
12817;DHT22;6473;51.552;6.716;2022-10-04T13:18:47;25.50;1.00
12817;DHT22;6473;51.552;6.716;2022-10-04T13:21:38;25.50;1.00
12817;DHT22;6473;51.552;6.716;2022-10-04T13:24:11;26.60;1.00
12817;DHT22;6473;51.552;6.716;2022-10-04T13:26:45;27.20;1.00
12817;DHT22;6473;51.552;6.716;2022-10-04T13:29:22;26.90;1.00
12817;DHT22;6473;51.552;6.716;2022-10-04T13:31:55;27.40;1.00
12817;DHT22;6473;51.552;6.716;2022-10-04T13:34:31;27.50;1.00
12817;DHT22;6473;51.552;6.716;2022-10-04T13:37:18;29.10;1.00
12817;DHT22;6473;51.552;6.716;2022-10-04T13:40:13;29.20;1.00
12817;DHT22;6473;51.552;6.716;2022-10-04T13:43:02;26.30;1.00
12817;DHT22;6473;51.552;6.716;2022-10-04T13:45:46;24.30;1.00
12817;DHT22;6473;51.552;6.716;2022-10-04T13:48:28;24.40;1.00
12817;DHT22;6473;51.552;6.716;2022-10-04T13:51:27;25.10;1.00
12817;DHT22;6473;51.552;6.716;2022-10-04T13:54:09;25.70;1.00
12817;DHT22;6473;51.552;6.716;2022-10-04T13:57:20;26.90;1.00
12817;DHT22;6473;51.552;6.716;2022-10-04T13:59:57;27.10;1.00
12817;DHT22;6473;51.552;6.716;2022-10-04T14:09:06;27.60;1.00
12817;DHT22;6473;51.552;6.716;2022-10-04T14:12:12;27.90;1.00
12817;DHT22;6473;51.552;6.716;2022-10-04T14:15:08;26.60;1.00
12817;DHT22;6473;51.552;6.716;2022-10-04T14:18:01;25.90;1.00
12817;DHT22;6473;51.552;6.716;2022-10-04T14:21:15;24.90;1.00
12817;DHT22;6473;51.552;6.716;2022-10-04T14:30:04;25.20;1.00
12817;DHT22;6473;51.552;6.716;2022-10-04T14:35:34;23.30;1.00
12817;DHT22;6473;51.552;6.716;2022-10-04T14:38:29;23.60;1.00
12817;DHT22;6473;51.552;6.716;2022-10-04T14:47:17;21.80;1.00
12817;DHT22;6473;51.552;6.716;2022-10-04T14:50:01;20.90;1.00
12817;DHT22;6473;51.552;6.716;2022-10-04T14:52:36;21.20;1.00
12817;DHT22;6473;51.552;6.716;2022-10-04T14:55:20;20.60;1.00
12817;DHT22;6473;51.552;6.716;2022-10-04T14:58:02;20.60;1.00
12817;DHT22;6473;51.552;6.716;2022-10-04T15:00:51;20.20;1.00
12817;DHT22;6473;51.552;6.716;2022-10-04T15:03:43;20.00;1.00
12817;DHT22;6473;51.552;6.716;2022-10-04T15:06:27;20.10;1.00
12817;DHT22;6473;51.552;6.716;2022-10-04T15:09:28;20.10;1.00
12817;DHT22;6473;51.552;6.716;2022-10-04T15:12:15;19.90;1.00
12817;DHT22;6473;51.552;6.716;2022-10-04T15:15:06;19.80;1.00
12817;DHT22;6473;51.552;6.716;2022-10-04T15:17:40;19.40;1.00
12817;DHT22;6473;51.552;6.716;2022-10-04T15:20:19;19.40;1.00
12817;DHT22;6473;51.552;6.716;2022-10-04T15:22:50;19.30;1.00
12817;DHT22;6473;51.552;6.716;2022-10-04T15:25:41;19.10;1.00
12817;DHT22;6473;51.552;6.716;2022-10-04T15:31:15;19.00;1.00
12817;DHT22;6473;51.552;6.716;2022-10-04T15:33:55;19.20;1.00
12817;DHT22;6473;51.552;6.716;2022-10-04T15:36:42;19.10;1.00
12817;DHT22;6473;51.552;6.716;2022-10-04T15:42:11;18.80;1.00
12817;DHT22;6473;51.552;6.716;2022-10-04T15:47:32;18.70;1.00
12817;DHT22;6473;51.552;6.716;2022-10-04T15:50:15;18.80;1.00
12817;DHT22;6473;51.552;6.716;2022-10-04T15:53:07;18.90;1.00
12817;DHT22;6473;51.552;6.716;2022-10-04T16:02:07;19.10;1.00
12817;DHT22;6473;51.552;6.716;2022-10-04T16:04:42;18.90;1.00
12817;DHT22;6473;51.552;6.716;2022-10-04T16:07:30;18.80;1.00
12817;DHT22;6473;51.552;6.716;2022-10-04T16:10:16;18.70;1.00
12817;DHT22;6473;51.552;6.716;2022-10-04T16:13:07;18.60;1.00
12817;DHT22;6473;51.552;6.716;2022-10-04T16:15:39;18.40;1.00
12817;DHT22;6473;51.552;6.716;2022-10-04T16:18:29;18.30;1.00
12817;DHT22;6473;51.552;6.716;2022-10-04T16:21:05;18.20;1.00
12817;DHT22;6473;51.552;6.716;2022-10-04T16:23:38;18.10;1.00
12817;DHT22;6473;51.552;6.716;2022-10-04T16:26:11;17.90;1.60
12817;DHT22;6473;51.552;6.716;2022-10-04T16:29:07;17.70;3.00
12817;DHT22;6473;51.552;6.716;2022-10-04T16:31:51;17.70;1.00
12817;DHT22;6473;51.552;6.716;2022-10-04T16:34:28;17.60;1.00
12817;DHT22;6473;51.552;6.716;2022-10-04T16:37:10;17.60;2.80
12817;DHT22;6473;51.552;6.716;2022-10-04T16:39:48;17.40;1.00
12817;DHT22;6473;51.552;6.716;2022-10-04T16:42:37;17.40;1.00
12817;DHT22;6473;51.552;6.716;2022-10-04T16:45:27;17.50;1.70
12817;DHT22;6473;51.552;6.716;2022-10-04T16:48:00;17.40;1.00
12817;DHT22;6473;51.552;6.716;2022-10-04T16:53:41;17.20;4.10
12817;DHT22;6473;51.552;6.716;2022-10-04T16:56:12;17.10;5.10
12817;DHT22;6473;51.552;6.716;2022-10-04T16:58:55;17.10;5.50
12817;DHT22;6473;51.552;6.716;2022-10-04T17:04:42;16.90;13.60
12817;DHT22;6473;51.552;6.716;2022-10-04T17:07:22;16.90;22.70
12817;DHT22;6473;51.552;6.716;2022-10-04T17:09:56;16.80;22.90
12817;DHT22;6473;51.552;6.716;2022-10-04T17:12:32;16.80;21.00
12817;DHT22;6473;51.552;6.716;2022-10-04T17:18:16;16.70;32.20
12817;DHT22;6473;51.552;6.716;2022-10-04T17:20:50;16.70;38.60
12817;DHT22;6473;51.552;6.716;2022-10-04T17:23:55;16.50;45.30
12817;DHT22;6473;51.552;6.716;2022-10-04T17:26:54;16.40;51.00
12817;DHT22;6473;51.552;6.716;2022-10-04T17:29:35;16.30;51.00
12817;DHT22;6473;51.552;6.716;2022-10-04T17:32:08;16.30;56.10
12817;DHT22;6473;51.552;6.716;2022-10-04T17:34:51;16.10;55.30
12817;DHT22;6473;51.552;6.716;2022-10-04T17:37:26;16.10;60.60
12817;DHT22;6473;51.552;6.716;2022-10-04T17:40:06;16.00;65.70
12817;DHT22;6473;51.552;6.716;2022-10-04T17:42:48;15.80;61.80
12817;DHT22;6473;51.552;6.716;2022-10-04T17:45:39;15.80;54.40
12817;DHT22;6473;51.552;6.716;2022-10-04T17:48:14;15.70;57.60
12817;DHT22;6473;51.552;6.716;2022-10-04T17:51:02;15.60;62.40
12817;DHT22;6473;51.552;6.716;2022-10-04T17:53:50;15.70;68.10
12817;DHT22;6473;51.552;6.716;2022-10-04T17:56:40;15.60;72.30
12817;DHT22;6473;51.552;6.716;2022-10-04T17:59:11;15.50;70.40
12817;DHT22;6473;51.552;6.716;2022-10-04T18:01:41;15.50;72.60
12817;DHT22;6473;51.552;6.716;2022-10-04T18:04:17;15.50;80.10
12817;DHT22;6473;51.552;6.716;2022-10-04T18:06:50;15.40;78.70
12817;DHT22;6473;51.552;6.716;2022-10-04T18:09:21;15.40;74.90
12817;DHT22;6473;51.552;6.716;2022-10-04T18:11:53;15.40;77.70
12817;DHT22;6473;51.552;6.716;2022-10-04T18:14:43;15.40;80.00
12817;DHT22;6473;51.552;6.716;2022-10-04T18:17:22;15.30;81.50
12817;DHT22;6473;51.552;6.716;2022-10-04T18:20:00;15.30;84.30
12817;DHT22;6473;51.552;6.716;2022-10-04T18:22:41;15.20;83.50
12817;DHT22;6473;51.552;6.716;2022-10-04T18:25:13;15.20;88.30
12817;DHT22;6473;51.552;6.716;2022-10-04T18:27:50;15.10;90.20
12817;DHT22;6473;51.552;6.716;2022-10-04T18:30:19;15.10;90.40
12817;DHT22;6473;51.552;6.716;2022-10-04T18:32:47;15.10;88.50
12817;DHT22;6473;51.552;6.716;2022-10-04T18:35:25;15.10;87.80
12817;DHT22;6473;51.552;6.716;2022-10-04T18:37:54;18.90;90.50
12817;DHT22;6473;51.552;6.716;2022-10-04T18:40:23;15.10;88.60
12817;DHT22;6473;51.552;6.716;2022-10-04T18:42:52;15.10;91.80
12817;DHT22;6473;51.552;6.716;2022-10-04T18:45:22;15.10;89.20
12817;DHT22;6473;51.552;6.716;2022-10-04T18:47:54;15.10;90.10
12817;DHT22;6473;51.552;6.716;2022-10-04T18:50:32;15.20;90.40
12817;DHT22;6473;51.552;6.716;2022-10-04T18:53:23;15.20;90.00
12817;DHT22;6473;51.552;6.716;2022-10-04T18:55:58;15.30;82.80
12817;DHT22;6473;51.552;6.716;2022-10-04T18:58:40;15.30;84.80